Time;durP1;ratioP1;P1;durP2;ratioP2;P2;SDS_P1;SDS_P2;PMS_P1;PMS_P2;Temp;Humidity;BMP_temperature;BMP_pressure;BME280_temperature;BME280_humidity;BME280_pressure;Samples;Min_cycle;Max_cycle;Signal;HPM_P1;HPM_P2
2022/07/27 00:03:37;;;;;;;3.57;3.27;;;26.60;41.20;;;;;;5142032;27;20986;-90
2022/07/27 00:06:04;;;;;;;4.20;3.80;;;26.60;41.70;;;;;;5107495;27;20459;-90
2022/07/27 00:08:31;;;;;;;4.47;4.07;;;26.50;41.50;;;;;;5125696;27;21077;-90
2022/07/27 00:10:59;;;;;;;4.30;3.70;;;26.40;41.70;;;;;;5110267;27;20449;-90
2022/07/27 00:13:27;;;;;;;4.40;3.80;;;26.50;41.70;;;;;;5120648;27;20464;-90
2022/07/27 00:15:54;;;;;;;3.47;3.23;;;26.50;41.90;;;;;;5096841;27;20455;-90
2022/07/27 00:18:21;;;;;;;3.60;3.40;;;26.50;41.70;;;;;;5113725;27;20534;-90
2022/07/27 00:20:48;;;;;;;3.83;3.53;;;26.50;42.00;;;;;;5105232;27;20447;-90
2022/07/27 00:23:15;;;;;;;7.57;4.80;;;26.30;42.20;;;;;;5130137;27;20476;-90
2022/07/27 00:25:42;;;;;;;5.50;4.33;;;26.30;42.40;;;;;;5139650;27;20436;-89
2022/07/27 00:28:11;;;;;;;9.50;5.30;;;26.10;43.00;;;;;;5112887;27;21128;-90
2022/07/27 00:30:37;;;;;;;5.27;4.30;;;26.00;43.20;;;;;;5131585;27;20441;-89
2022/07/27 00:36:46;;;;;;;4.93;4.50;;;26.10;43.30;;;;;;5129946;27;20437;-89
2022/07/27 00:39:12;;;;;;;5.10;4.07;;;26.00;43.70;;;;;;5112699;27;20444;-89
2022/07/27 00:41:39;;;;;;;8.13;4.67;;;26.00;43.80;;;;;;5146341;27;20860;-90
2022/07/27 00:44:09;;;;;;;4.93;4.53;;;26.10;43.40;;;;;;5114193;27;20472;-89
2022/07/27 00:46:36;;;;;;;4.60;4.30;;;26.00;43.60;;;;;;5110604;27;20468;-90
2022/07/27 00:49:04;;;;;;;5.43;4.77;;;26.10;43.50;;;;;;5111698;27;20464;-89
2022/07/27 00:51:32;;;;;;;6.40;4.33;;;26.10;43.50;;;;;;5126097;27;20463;-90
2022/07/27 00:53:59;;;;;;;5.17;4.73;;;26.10;43.80;;;;;;5147396;27;20460;-90
2022/07/27 01:00:59;;;;;;;3.77;3.47;;;26.00;43.80;;;;;;5145120;27;20434;-90
2022/07/27 01:03:26;;;;;;;4.50;4.20;;;26.10;43.80;;;;;;5126771;27;20578;-90
2022/07/27 01:05:53;;;;;;;5.97;4.30;;;26.10;44.00;;;;;;5110062;27;20469;-90
2022/07/27 01:08:20;;;;;;;4.90;4.37;;;26.20;44.70;;;;;;5110293;27;20960;-89
2022/07/27 01:10:48;;;;;;;4.90;4.50;;;26.20;43.70;;;;;;5140558;27;20441;-89
2022/07/27 01:13:16;;;;;;;6.93;4.27;;;26.30;43.90;;;;;;5126629;27;20547;-90
2022/07/27 01:15:44;;;;;;;4.27;3.97;;;26.20;43.60;;;;;;5128703;27;20523;-88
2022/07/27 01:18:13;;;;;;;3.73;3.43;;;26.10;43.70;;;;;;5129522;27;20471;-90
2022/07/27 01:20:41;;;;;;;4.00;3.70;;;26.10;44.60;;;;;;5143376;27;20437;-90
2022/07/27 01:23:10;;;;;;;4.60;3.53;;;26.10;43.70;;;;;;5113040;27;20480;-89
2022/07/27 01:25:38;;;;;;;7.30;3.90;;;26.10;43.90;;;;;;5127855;27;20449;-89
2022/07/27 01:28:05;;;;;;;4.27;3.97;;;26.10;43.90;;;;;;5116178;27;20461;-90
2022/07/27 01:34:39;;;;;;;3.53;3.23;;;26.00;44.00;;;;;;5129681;27;20485;-89
2022/07/27 01:37:06;;;;;;;6.67;3.87;;;26.00;43.80;;;;;;5146776;27;20516;-87
2022/07/27 01:39:35;;;;;;;4.13;3.83;;;25.90;43.90;;;;;;5149979;27;21007;-89
2022/07/27 01:42:02;;;;;;;6.60;3.87;;;26.00;43.90;;;;;;5130351;27;20439;-89
2022/07/27 01:44:54;;;;;;;5.10;3.70;;;26.10;43.90;;;;;;5110451;27;20440;-90
2022/07/27 01:47:21;;;;;;;4.07;3.63;;;26.10;44.80;;;;;;5130587;27;20484;-90
2022/07/27 01:49:48;;;;;;;3.60;3.20;;;26.00;44.30;;;;;;5149399;27;20449;-90
2022/07/27 02:02:07;;;;;;;4.77;4.37;;;25.90;50.10;;;;;;5110538;27;20433;-90
2022/07/27 02:04:34;;;;;;;4.13;3.83;;;25.80;51.60;;;;;;5125809;27;20641;-89
2022/07/27 02:07:01;;;;;;;6.10;5.20;;;25.60;51.50;;;;;;5127102;27;20502;-88
2022/07/27 02:09:28;;;;;;;5.77;4.87;;;25.60;52.10;;;;;;5124359;27;20991;-89
2022/07/27 02:14:40;;;;;;;5.30;4.53;;;25.00;51.30;;;;;;5125707;27;20967;-89
2022/07/27 02:17:07;;;;;;;5.00;4.50;;;25.10;53.70;;;;;;5125966;27;20754;-88
2022/07/27 02:23:43;;;;;;;5.33;4.83;;;25.20;53.70;;;;;;5141018;27;20734;-87
2022/07/27 02:26:10;;;;;;;5.37;4.60;;;25.20;53.90;;;;;;5138563;27;20449;-88
2022/07/27 02:28:38;;;;;;;6.10;5.47;;;25.20;54.10;;;;;;5124170;27;20452;-86
2022/07/27 02:31:05;;;;;;;5.70;4.70;;;25.20;55.00;;;;;;5125601;27;20951;-88
2022/07/27 02:33:32;;;;;;;7.50;5.17;;;25.10;54.50;;;;;;5095553;27;20480;-88
2022/07/27 02:35:59;;;;;;;5.70;4.90;;;25.10;54.20;;;;;;5124783;27;21180;-86
2022/07/27 02:38:26;;;;;;;5.70;5.17;;;25.10;54.30;;;;;;5105164;27;20445;-87
2022/07/27 02:40:53;;;;;;;4.70;4.30;;;25.00;53.80;;;;;;5103678;27;20433;-88
2022/07/27 02:43:20;;;;;;;6.27;5.50;;;25.00;54.60;;;;;;5122008;27;20490;-86
2022/07/27 02:49:56;;;;;;;6.23;5.70;;;24.50;54.40;;;;;;5121505;27;20439;-88
2022/07/27 02:52:23;;;;;;;7.10;5.83;;;24.40;55.20;;;;;;5137948;27;20539;-87
2022/07/27 02:54:50;;;;;;;5.80;5.27;;;24.40;55.20;;;;;;5104385;27;20469;-87
2022/07/27 02:57:17;;;;;;;5.60;5.10;;;24.40;54.80;;;;;;5141298;27;20460;-87
2022/07/27 02:59:44;;;;;;;5.40;5.00;;;24.30;54.80;;;;;;5094803;27;20433;-86
2022/07/27 03:02:11;;;;;;;6.13;5.33;;;24.20;55.20;;;;;;5121051;27;20456;-87
2022/07/27 03:04:38;;;;;;;4.90;4.40;;;24.30;55.50;;;;;;5123381;27;20469;-88
2022/07/27 03:07:07;;;;;;;4.57;4.17;;;24.40;55.00;;;;;;5086825;27;20445;-87
2022/07/27 03:09:35;;;;;;;6.33;5.30;;;24.50;55.40;;;;;;5137865;27;20441;-87
2022/07/27 03:12:02;;;;;;;5.30;4.90;;;24.40;55.40;;;;;;5107033;27;20526;-86
2022/07/27 03:14:28;;;;;;;5.43;5.00;;;24.50;54.90;;;;;;5123615;27;20875;-87
2022/07/27 03:16:55;;;;;;;5.87;5.00;;;24.50;55.20;;;;;;5124366;27;20441;-87
2022/07/27 03:19:22;;;;;;;6.13;4.67;;;24.50;55.00;;;;;;5103907;27;20451;-87
2022/07/27 03:21:49;;;;;;;4.90;4.30;;;24.40;55.10;;;;;;5104226;27;20444;-87
2022/07/27 03:24:18;;;;;;;5.23;4.83;;;24.50;54.50;;;;;;5139968;27;20485;-86
2022/07/27 03:26:45;;;;;;;6.03;5.30;;;24.50;54.70;;;;;;5125078;27;20437;-87
2022/07/27 03:29:13;;;;;;;5.00;4.60;;;24.40;55.20;;;;;;5122793;27;20444;-87
2022/07/27 03:31:39;;;;;;;5.70;5.17;;;24.40;54.70;;;;;;5142006;27;20579;-87
2022/07/27 03:34:06;;;;;;;7.10;4.63;;;24.30;54.20;;;;;;5121632;27;20555;-86
2022/07/27 03:40:41;;;;;;;5.67;4.83;;;23.80;55.90;;;;;;5122405;27;20464;-87
2022/07/27 03:47:15;;;;;;;5.03;4.53;;;23.90;54.90;;;;;;5098215;27;20510;-87
2022/07/27 03:50:33;;;;;;;5.37;4.50;;;23.90;55.20;;;;;;5107500;27;20452;-87
2022/07/27 03:53:26;;;;;;;4.83;4.27;;;23.90;54.80;;;;;;5141725;27;21276;-87
2022/07/27 03:55:54;;;;;;;4.60;4.30;;;23.90;55.30;;;;;;5111400;27;20471;-88
2022/07/27 03:58:22;;;;;;;5.33;4.07;;;23.80;55.70;;;;;;5116125;27;20476;-87
2022/07/27 04:00:49;;;;;;;3.77;3.47;;;23.90;55.00;;;;;;5145717;27;20452;-89
2022/07/27 04:03:16;;;;;;;4.90;4.43;;;23.50;54.60;;;;;;5126261;27;20906;-87
2022/07/27 04:05:43;;;;;;;5.10;4.23;;;23.20;55.60;;;;;;5100807;27;20445;-87
2022/07/27 04:08:10;;;;;;;4.63;4.23;;;23.10;56.20;;;;;;5129155;27;20940;-86
2022/07/27 04:10:37;;;;;;;5.53;5.03;;;23.00;56.50;;;;;;5125509;27;20463;-85
2022/07/27 04:13:06;;;;;;;5.53;4.13;;;23.00;56.80;;;;;;5145657;27;21164;-88
2022/07/27 04:15:33;;;;;;;4.40;4.10;;;23.10;56.20;;;;;;5146392;27;20792;-87
2022/07/27 04:18:00;;;;;;;4.33;3.87;;;23.20;56.80;;;;;;5148017;27;20452;-87
2022/07/27 04:20:27;;;;;;;4.53;4.13;;;23.40;56.90;;;;;;5105584;27;20468;-86
2022/07/27 04:22:54;;;;;;;5.73;4.83;;;23.40;56.50;;;;;;5128255;27;20471;-88
2022/07/27 04:25:21;;;;;;;6.57;4.83;;;23.50;56.30;;;;;;5119535;27;20457;-87
2022/07/27 04:27:48;;;;;;;4.90;4.50;;;23.60;56.30;;;;;;5148973;27;20451;-87
2022/07/27 04:30:16;;;;;;;4.83;4.23;;;23.60;56.20;;;;;;5147731;27;20448;-87
2022/07/27 04:32:43;;;;;;;5.30;4.80;;;23.60;56.40;;;;;;5147246;27;20464;-87
2022/07/27 04:39:43;;;;;;;5.00;4.50;;;23.70;56.40;;;;;;5124882;27;20448;-87
2022/07/27 04:42:09;;;;;;;4.77;4.00;;;23.60;56.70;;;;;;5148186;27;20437;-87
2022/07/27 04:44:37;;;;;;;4.60;4.30;;;23.70;56.70;;;;;;5129241;27;20487;-87
2022/07/27 04:47:05;;;;;;;5.03;4.63;;;23.70;56.60;;;;;;5146085;27;20464;-86
2022/07/27 04:49:32;;;;;;;4.87;4.47;;;23.70;57.00;;;;;;5110778;27;20448;-87
2022/07/27 04:51:59;;;;;;;4.80;4.40;;;23.70;57.10;;;;;;5145746;27;21231;-87
2022/07/27 04:54:26;;;;;;;5.20;4.60;;;23.70;56.60;;;;;;5083805;27;20468;-87
2022/07/27 04:56:53;;;;;;;4.73;4.33;;;23.80;56.60;;;;;;5126150;27;20798;-87
2022/07/27 04:59:20;;;;;;;4.83;4.33;;;23.80;56.30;;;;;;5122749;27;20970;-87
2022/07/27 05:01:47;;;;;;;4.80;4.40;;;23.80;56.30;;;;;;5125564;27;21338;-87
2022/07/27 05:04:15;;;;;;;6.27;4.30;;;23.80;56.10;;;;;;5125514;27;20903;-88
2022/07/27 05:06:42;;;;;;;5.67;4.40;;;23.80;56.70;;;;;;5122157;27;21316;-89
2022/07/27 05:09:09;;;;;;;4.53;4.20;;;23.80;57.30;;;;;;5133350;27;20461;-88
2022/07/27 05:16:09;;;;;;;4.57;3.87;;;23.70;56.90;;;;;;5136817;27;20932;-87
2022/07/27 05:18:36;;;;;;;5.03;4.63;;;23.70;57.00;;;;;;5108253;27;20533;-87
2022/07/27 05:21:05;;;;;;;4.80;4.30;;;23.70;57.40;;;;;;5138572;27;20891;-88
2022/07/27 05:23:32;;;;;;;7.20;4.50;;;23.80;57.20;;;;;;5121956;27;20475;-89
2022/07/27 05:25:59;;;;;;;4.47;3.50;;;23.80;56.60;;;;;;5094322;27;20445;-88
2022/07/27 05:28:26;;;;;;;4.20;3.80;;;23.80;57.00;;;;;;5120136;27;20453;-87
2022/07/27 05:35:00;;;;;;;4.00;3.70;;;24.00;56.10;;;;;;5122324;27;20441;-88
2022/07/27 05:37:29;;;;;;;6.90;3.80;;;23.90;56.50;;;;;;5120695;27;20457;-89
2022/07/27 05:39:56;;;;;;;4.33;2.70;;;23.90;56.00;;;;;;5140813;27;20441;-87
2022/07/27 05:42:23;;;;;;;2.83;2.63;;;23.90;54.40;;;;;;5135758;27;21034;-87
2022/07/27 05:44:53;;;;;;;2.87;2.60;;;23.80;54.30;;;;;;5138281;27;20477;-88
2022/07/27 05:47:21;;;;;;;3.80;2.70;;;23.20;54.80;;;;;;5096247;27;20541;-88
2022/07/27 05:50:38;;;;;;;3.47;3.00;;;23.10;55.40;;;;;;5122606;27;20869;-88
2022/07/27 05:53:32;;;;;;;2.57;2.37;;;23.20;57.20;;;;;;5134033;27;20979;-89
2022/07/27 05:55:59;;;;;;;2.70;2.50;;;23.50;56.50;;;;;;5141507;27;20970;-87
2022/07/27 05:58:26;;;;;;;3.00;2.80;;;23.40;55.60;;;;;;5105272;27;20469;-88
2022/07/27 06:00:53;;;;;;;2.90;2.70;;;23.50;56.10;;;;;;5119681;27;20463;-88
2022/07/27 06:03:20;;;;;;;2.67;2.40;;;23.70;56.00;;;;;;5142422;27;20469;-88
2022/07/27 06:05:47;;;;;;;4.53;2.60;;;23.90;56.60;;;;;;5119342;27;20449;-87
2022/07/27 06:08:13;;;;;;;2.73;2.50;;;24.00;56.80;;;;;;5118491;27;20445;-88
2022/07/27 06:11:31;;;;;;;3.00;2.63;;;24.00;56.00;;;;;;5120160;27;20429;-88
2022/07/27 06:14:50;;;;;;;6.03;2.47;;;24.20;55.80;;;;;;5139212;27;20472;-88
2022/07/27 06:17:17;;;;;;;3.20;2.30;;;24.20;54.70;;;;;;5134649;27;20445;-86
2022/07/27 06:19:44;;;;;;;2.33;2.10;;;24.10;55.10;;;;;;5134863;27;20457;-88
2022/07/27 06:22:11;;;;;;;2.43;2.23;;;23.90;53.70;;;;;;5100449;27;20978;-88
2022/07/27 06:24:38;;;;;;;2.27;2.10;;;23.90;54.80;;;;;;5102715;27;20484;-88
2022/07/27 06:27:05;;;;;;;3.47;2.50;;;23.90;55.50;;;;;;5104884;27;20494;-89
2022/07/27 06:29:33;;;;;;;1.90;1.80;;;23.80;55.30;;;;;;5103716;27;20480;-88
2022/07/27 06:32:01;;;;;;;5.07;2.10;;;23.80;54.70;;;;;;5102467;27;20449;-90
2022/07/27 06:34:28;;;;;;;2.57;2.37;;;23.90;55.20;;;;;;5120448;27;21238;-91
2022/07/27 06:36:58;;;;;;;3.90;2.50;;;24.20;55.40;;;;;;5104319;27;21161;-89
2022/07/27 06:39:25;;;;;;;3.87;2.33;;;24.20;54.60;;;;;;5119948;27;20449;-91
2022/07/27 06:41:52;;;;;;;2.20;2.00;;;24.20;53.80;;;;;;5105764;27;20456;-89
2022/07/27 06:44:20;;;;;;;4.10;1.80;;;24.00;53.60;;;;;;5100749;27;20566;-89
2022/07/27 06:46:47;;;;;;;4.60;2.47;;;24.10;53.80;;;;;;5117859;27;20509;-88
2022/07/27 06:49:15;;;;;;;2.10;2.00;;;24.10;54.90;;;;;;5122117;27;20448;-88
2022/07/27 06:51:42;;;;;;;4.90;1.87;;;24.10;53.70;;;;;;5137930;27;20561;-88
2022/07/27 06:54:10;;;;;;;3.17;1.97;;;24.10;54.00;;;;;;5135120;27;21427;-88
2022/07/27 07:08:57;;;;;;;2.40;1.57;;;24.10;52.40;;;;;;5119965;27;20453;-89
2022/07/27 07:16:21;;;;;;;2.57;1.70;;;24.10;53.10;;;;;;5133963;27;20936;-89
2022/07/27 07:18:48;;;;;;;2.47;2.27;;;24.20;52.60;;;;;;5139417;27;20453;-89
2022/07/27 07:21:15;;;;;;;8.67;2.40;;;24.30;52.30;;;;;;5102355;27;20639;-90
2022/07/27 07:27:52;;;;;;;4.43;1.87;;;24.50;50.90;;;;;;5124315;27;20429;-89
2022/07/27 07:30:20;;;;;;;2.37;1.97;;;24.30;51.20;;;;;;5120373;27;20978;-91
2022/07/27 07:32:47;;;;;;;2.77;1.90;;;24.40;52.00;;;;;;5122857;27;20453;-89
2022/07/27 07:38:56;;;;;;;3.30;2.37;;;24.40;50.70;;;;;;5127414;27;20814;-88
2022/07/27 07:57:58;;;;;;;2.43;1.80;;;24.50;49.20;;;;;;5129275;27;20424;-91
2022/07/27 08:00:25;;;;;;;2.27;2.07;;;24.80;50.50;;;;;;5139675;27;20519;-88
2022/07/27 08:02:56;;;;;;;2.10;2.00;;;24.90;48.80;;;;;;5124268;27;20441;-88
2022/07/27 08:05:24;;;;;;;4.20;2.17;;;25.20;49.10;;;;;;5145295;27;20471;-89
2022/07/27 08:07:52;;;;;;;2.60;2.30;;;25.00;48.60;;;;;;5118437;27;21222;-89
2022/07/27 08:10:20;;;;;;;2.10;1.90;;;25.00;48.90;;;;;;5088396;27;20429;-88
2022/07/27 08:12:49;;;;;;;3.13;1.90;;;25.00;47.60;;;;;;5120099;27;21007;-89
2022/07/27 08:15:18;;;;;;;8.43;2.33;;;25.20;48.80;;;;;;5123522;27;20445;-89
2022/07/27 08:17:45;;;;;;;3.37;2.00;;;25.30;48.40;;;;;;5109281;27;20462;-89
2022/07/27 08:21:03;;;;;;;2.67;2.30;;;25.50;48.30;;;;;;5120469;27;20436;-87
2022/07/27 08:23:55;;;;;;;5.10;1.80;;;25.50;47.40;;;;;;5101255;27;20453;-88
2022/07/27 08:26:22;;;;;;;4.20;2.50;;;25.60;48.40;;;;;;5096742;27;20448;-89
2022/07/27 08:28:49;;;;;;;3.40;2.07;;;25.40;48.40;;;;;;5140906;27;20753;-89
2022/07/27 08:31:17;;;;;;;2.40;1.80;;;25.20;48.80;;;;;;5100392;27;20459;-89
2022/07/27 08:46:06;;;;;;;2.83;1.90;;;25.80;47.50;;;;;;5111583;27;20448;-90
2022/07/27 08:48:34;;;;;;;2.33;2.13;;;25.90;46.50;;;;;;5133929;27;20460;-89
2022/07/27 08:51:01;;;;;;;2.73;2.10;;;26.20;47.60;;;;;;5114535;27;20452;-88
2022/07/27 08:53:31;;;;;;;3.20;2.17;;;26.10;46.40;;;;;;5130381;27;20480;-88
2022/07/27 08:55:58;;;;;;;3.60;2.27;;;25.60;47.40;;;;;;5118959;27;20445;-88
2022/07/27 08:58:26;;;;;;;3.03;2.73;;;25.90;47.70;;;;;;5125465;27;20436;-88
2022/07/27 09:00:53;;;;;;;3.57;2.10;;;26.10;46.80;;;;;;5147338;27;20943;-89
2022/07/27 09:03:22;;;;;;;2.00;1.90;;;26.20;46.10;;;;;;5142135;27;20479;-88
2022/07/27 09:06:39;;;;;;;2.93;1.83;;;26.30;45.80;;;;;;5127220;27;20472;-87
2022/07/27 09:09:44;;;;;;;2.50;1.60;;;26.60;45.80;;;;;;5141899;27;20465;-88
2022/07/27 09:12:11;;;;;;;2.23;2.10;;;26.70;43.30;;;;;;5124408;27;20453;-88
2022/07/27 09:14:40;;;;;;;2.90;1.90;;;26.70;43.80;;;;;;5086449;27;21038;-89
2022/07/27 09:17:21;;;;;;;4.30;2.20;;;26.80;41.80;;;;;;5125495;27;20466;-88
2022/07/27 09:19:56;;;;;;;3.63;1.60;;;27.00;43.70;;;;;;5116412;27;20936;-88
2022/07/27 09:22:43;;;;;;;1.53;1.43;;;27.20;44.30;;;;;;5124488;27;20576;-88
2022/07/27 09:25:14;;;;;;;1.30;1.13;;;27.30;41.70;;;;;;5125123;27;20467;-90
2022/07/27 09:27:42;;;;;;;1.97;1.70;;;27.40;40.70;;;;;;5111633;27;20453;-91
2022/07/27 09:30:11;;;;;;;1.80;1.60;;;27.40;40.40;;;;;;5147217;27;20451;-92
2022/07/27 09:32:38;;;;;;;4.63;1.63;;;27.60;42.40;;;;;;5113242;27;20462;-91
2022/07/27 09:43:21;;;;;;;2.00;1.30;;;28.50;39.50;;;;;;5141146;27;21182;-90
2022/07/27 09:45:48;;;;;;;1.73;1.60;;;28.50;39.40;;;;;;5129099;27;20479;-91
2022/07/27 09:48:16;;;;;;;2.10;1.90;;;28.20;38.30;;;;;;5093538;27;20452;-89
2022/07/27 09:51:34;;;;;;;4.30;1.40;;;28.10;40.50;;;;;;5098459;27;20944;-91
2022/07/27 09:54:51;;;;;;;4.63;1.97;;;27.70;38.90;;;;;;5114739;27;20449;-91
2022/07/27 09:57:18;;;;;;;2.13;2.00;;;27.50;38.90;;;;;;5139514;27;20513;-91
2022/07/27 09:59:47;;;;;;;1.70;1.60;;;27.40;40.00;;;;;;5128512;27;20452;-91
2022/07/27 10:02:15;;;;;;;1.60;1.50;;;27.50;40.70;;;;;;5094518;27;20449;-91
2022/07/27 10:04:43;;;;;;;3.10;1.80;;;27.70;39.80;;;;;;5125186;27;20471;-92
2022/07/27 10:07:11;;;;;;;1.93;1.60;;;27.90;39.30;;;;;;5124657;27;20469;-92
2022/07/27 10:09:38;;;;;;;1.97;1.87;;;27.80;39.90;;;;;;5112401;27;20966;-92
2022/07/27 10:12:06;;;;;;;2.57;1.90;;;27.80;39.80;;;;;;5128741;27;21250;-91
2022/07/27 10:14:34;;;;;;;4.60;1.80;;;27.80;40.20;;;;;;5150406;27;20567;-91
2022/07/27 10:17:03;;;;;;;1.70;1.60;;;28.00;39.70;;;;;;5130495;27;20960;-91
2022/07/27 10:19:39;;;;;;;3.10;1.80;;;28.20;39.00;;;;;;5109507;27;20513;-91
2022/07/27 10:22:50;;;;;;;1.70;1.60;;;28.10;37.80;;;;;;5144516;27;20432;-90
2022/07/27 10:25:17;;;;;;;1.60;1.50;;;27.60;38.20;;;;;;5142804;27;20465;-89
2022/07/27 10:27:47;;;;;;;3.23;1.80;;;27.50;39.90;;;;;;5108694;27;20446;-91
2022/07/27 10:30:15;;;;;;;1.93;1.73;;;27.60;39.30;;;;;;5092666;27;20449;-92
2022/07/27 10:32:44;;;;;;;2.03;1.90;;;27.50;38.40;;;;;;5126052;27;20449;-91
2022/07/27 10:35:32;;;;;;;3.00;1.80;;;27.40;38.70;;;;;;5125140;27;20447;-92
2022/07/27 10:41:20;;;;;;;5.03;1.63;;;27.40;38.50;;;;;;5104366;27;20445;-89
2022/07/27 10:43:49;;;;;;;1.50;1.40;;;27.30;38.50;;;;;;5142879;27;20487;-89
2022/07/27 10:46:19;;;;;;;5.67;2.03;;;27.40;40.20;;;;;;5105032;27;20489;-88
2022/07/27 10:48:48;;;;;;;1.80;1.50;;;27.60;39.30;;;;;;5102910;27;20544;-88
2022/07/27 10:51:15;;;;;;;2.43;1.80;;;27.40;39.80;;;;;;5134690;27;20460;-90
2022/07/27 10:53:44;;;;;;;2.53;1.93;;;27.30;40.00;;;;;;5103541;27;20473;-89
2022/07/27 10:56:45;;;;;;;2.70;1.73;;;27.10;40.40;;;;;;5139366;27;20453;-91
2022/07/27 10:59:12;;;;;;;1.77;1.20;;;27.10;41.00;;;;;;5140061;27;20447;-90
2022/07/27 11:01:56;;;;;;;1.60;1.43;;;27.10;41.20;;;;;;5140470;27;20456;-90
2022/07/27 11:04:25;;;;;;;2.07;1.30;;;27.40;41.30;;;;;;5119950;27;20473;-91
2022/07/27 11:10:59;;;;;;;2.60;1.83;;;28.00;39.10;;;;;;5105488;27;20848;-91
2022/07/27 11:13:27;;;;;;;3.20;1.80;;;28.10;38.80;;;;;;5136350;27;20484;-89
2022/07/27 11:15:57;;;;;;;1.87;1.77;;;28.40;38.50;;;;;;5126490;27;20442;-92
2022/07/27 11:18:25;;;;;;;4.73;2.40;;;29.00;36.80;;;;;;5092892;27;20441;-90
2022/07/27 11:21:13;;;;;;;2.00;1.80;;;29.50;36.50;;;;;;5123319;27;20449;-89
2022/07/27 11:23:40;;;;;;;1.83;1.40;;;29.70;34.50;;;;;;5111462;27;20473;-90
2022/07/27 11:26:07;;;;;;;2.23;1.40;;;29.70;34.50;;;;;;5139945;27;20464;-91
2022/07/27 11:28:35;;;;;;;1.70;1.30;;;29.60;35.30;;;;;;5110703;27;20541;-91
2022/07/27 11:31:03;;;;;;;5.57;1.80;;;29.70;35.80;;;;;;5097197;27;20470;-91
2022/07/27 11:33:31;;;;;;;2.50;1.40;;;29.40;34.10;;;;;;5141656;27;20475;-89
2022/07/27 11:36:01;;;;;;;2.97;1.70;;;29.10;34.50;;;;;;5100802;27;20486;-91
2022/07/27 11:38:28;;;;;;;2.90;1.60;;;28.90;34.30;;;;;;5094743;27;20464;-89
2022/07/27 11:40:55;;;;;;;2.53;1.60;;;28.70;34.20;;;;;;5089785;27;20446;-91
2022/07/27 11:50:35;;;;;;;2.70;1.57;;;28.30;37.50;;;;;;5133563;27;20441;-89
2022/07/27 11:53:04;;;;;;;5.63;2.20;;;28.30;35.40;;;;;;5104336;27;20575;-89
2022/07/27 11:55:31;;;;;;;3.27;1.60;;;28.60;36.30;;;;;;5119228;27;20764;-89
2022/07/27 11:58:03;;;;;;;1.70;1.60;;;28.70;35.10;;;;;;5106910;27;21006;-89
2022/07/27 12:00:40;;;;;;;12.53;1.50;;;29.10;34.70;;;;;;5141053;27;20449;-91
2022/07/27 12:03:07;;;;;;;2.47;1.67;;;29.60;33.20;;;;;;5109851;27;21291;-85
2022/07/27 12:05:34;;;;;;;1.50;1.40;;;29.70;33.10;;;;;;5099464;27;20460;-86
2022/07/27 12:08:02;;;;;;;3.23;2.23;;;29.80;32.00;;;;;;5120975;27;20437;-86
2022/07/27 12:10:29;;;;;;;4.07;1.70;;;29.70;31.90;;;;;;5137343;27;20812;-88
2022/07/27 12:12:56;;;;;;;2.33;1.50;;;29.90;32.40;;;;;;5116099;27;20480;-88
2022/07/27 12:15:23;;;;;;;1.67;1.57;;;30.10;33.00;;;;;;5108278;27;21182;-88
2022/07/27 12:17:56;;;;;;;6.10;1.40;;;30.40;31.40;;;;;;5143438;27;20934;-87
2022/07/27 12:20:32;;;;;;;2.90;1.63;;;30.40;30.80;;;;;;5111784;27;20455;-85
2022/07/27 12:23:05;;;;;;;1.63;1.50;;;30.50;30.90;;;;;;5140284;27;20464;-88
2022/07/27 12:25:33;;;;;;;3.63;1.90;;;30.50;29.50;;;;;;5141681;27;20461;-88
2022/07/27 12:34:36;;;;;;;4.00;1.70;;;30.40;29.90;;;;;;5141501;27;20568;-87
2022/07/27 12:37:11;;;;;;;1.50;1.23;;;30.50;30.40;;;;;;5107793;27;21004;-88
2022/07/27 12:46:20;;;;;;;2.40;1.70;;;30.70;30.20;;;;;;5144259;27;20564;-87
2022/07/27 12:48:47;;;;;;;1.60;1.50;;;30.90;31.10;;;;;;5123293;27;20449;-87
2022/07/27 12:55:25;;;;;;;2.23;1.70;;;30.60;30.30;;;;;;5108883;27;20874;-88
2022/07/27 12:57:53;;;;;;;2.10;1.70;;;29.80;31.10;;;;;;5129321;27;20541;-88
2022/07/27 13:00:22;;;;;;;1.67;1.57;;;29.70;31.40;;;;;;5126021;27;20456;-87
2022/07/27 13:02:49;;;;;;;2.13;1.90;;;29.60;30.80;;;;;;5126954;27;20516;-88
2022/07/27 13:05:17;;;;;;;2.30;1.37;;;29.70;30.50;;;;;;5121387;27;20445;-88
2022/07/27 13:07:46;;;;;;;3.17;1.53;;;29.80;30.80;;;;;;5089469;27;20500;-89
2022/07/27 13:16:48;;;;;;;2.40;1.53;;;30.30;29.60;;;;;;5126498;27;20434;-87
2022/07/27 13:19:16;;;;;;;1.70;1.60;;;30.60;29.40;;;;;;5106125;27;20480;-88
2022/07/27 13:21:43;;;;;;;3.20;1.83;;;30.70;29.70;;;;;;5106969;27;20452;-87
2022/07/27 13:24:10;;;;;;;1.53;1.43;;;30.60;29.50;;;;;;5144500;27;20472;-87
2022/07/27 13:26:38;;;;;;;2.20;1.70;;;30.60;30.10;;;;;;5130089;27;20460;-87
2022/07/27 13:29:07;;;;;;;3.60;1.83;;;30.50;29.60;;;;;;5148509;27;20442;-88
2022/07/27 13:31:34;;;;;;;2.23;2.03;;;30.50;29.80;;;;;;5128544;27;20500;-87
2022/07/27 13:34:01;;;;;;;2.00;1.80;;;30.10;29.60;;;;;;5130996;27;20996;-86
2022/07/27 13:36:28;;;;;;;2.60;1.90;;;30.10;29.80;;;;;;5125614;27;20449;-87
2022/07/27 13:38:55;;;;;;;4.57;1.77;;;30.40;28.90;;;;;;5114056;27;20480;-88
2022/07/27 13:41:22;;;;;;;1.50;1.40;;;30.70;29.20;;;;;;5127310;27;20593;-87
2022/07/27 13:43:49;;;;;;;5.53;1.80;;;30.80;29.50;;;;;;5129197;27;20468;-88
2022/07/27 13:46:17;;;;;;;5.30;2.50;;;30.80;28.50;;;;;;5139759;27;20495;-89
2022/07/27 13:48:44;;;;;;;1.80;1.70;;;30.20;28.00;;;;;;5135901;27;20449;-87
2022/07/27 13:51:11;;;;;;;1.80;1.70;;;29.80;29.30;;;;;;5106065;27;20449;-86
2022/07/27 13:53:38;;;;;;;1.97;1.83;;;29.70;29.60;;;;;;5142913;27;20485;-88
2022/07/27 13:56:06;;;;;;;4.20;2.43;;;30.00;29.80;;;;;;5104362;27;20451;-86
2022/07/27 14:02:18;;;;;;;2.90;1.60;;;30.30;28.60;;;;;;5126179;27;20825;-87
2022/07/27 14:04:45;;;;;;;5.97;1.93;;;30.20;27.90;;;;;;5128974;27;20469;-88
2022/07/27 14:07:12;;;;;;;2.07;1.63;;;30.20;28.70;;;;;;5111290;27;20480;-89
2022/07/27 14:12:23;;;;;;;3.10;1.60;;;29.80;28.50;;;;;;5126541;27;20793;-88
2022/07/27 14:14:50;;;;;;;2.53;1.60;;;29.60;29.20;;;;;;5112333;27;20475;-89
2022/07/27 14:17:18;;;;;;;2.00;1.80;;;29.40;29.50;;;;;;5101804;27;20464;-87
2022/07/27 14:19:46;;;;;;;2.07;1.87;;;29.50;29.50;;;;;;5122619;27;20807;-88
2022/07/27 14:22:13;;;;;;;2.53;1.43;;;29.40;29.60;;;;;;5105390;27;20875;-87
2022/07/27 14:24:40;;;;;;;1.93;1.63;;;29.60;29.60;;;;;;5089365;27;20469;-87
2022/07/27 14:34:41;;;;;;;2.00;1.57;;;30.00;28.50;;;;;;5128876;27;20460;-87
2022/07/27 14:37:08;;;;;;;1.80;1.70;;;30.00;29.00;;;;;;5107557;27;20441;-86
2022/07/27 14:39:35;;;;;;;3.80;1.47;;;30.10;29.00;;;;;;5103564;27;20445;-87
2022/07/27 14:42:02;;;;;;;4.13;1.60;;;30.10;28.70;;;;;;5124505;27;20449;-87
2022/07/27 14:44:54;;;;;;;2.00;1.80;;;29.90;28.60;;;;;;5121804;27;20484;-87
2022/07/27 14:47:21;;;;;;;2.27;1.50;;;29.70;28.30;;;;;;5104296;27;20515;-87
2022/07/27 14:49:49;;;;;;;3.00;2.00;;;29.80;29.10;;;;;;5136181;27;20465;-88
2022/07/27 14:52:17;;;;;;;3.37;1.70;;;29.80;28.40;;;;;;5119885;27;20458;-88
2022/07/27 14:54:45;;;;;;;2.67;1.60;;;29.90;28.80;;;;;;5099622;27;20517;-87
2022/07/27 14:57:13;;;;;;;2.23;1.63;;;30.00;28.40;;;;;;5121775;27;21218;-88
2022/07/27 14:59:40;;;;;;;2.00;1.67;;;30.20;28.60;;;;;;5142701;27;20548;-88
2022/07/27 15:02:07;;;;;;;4.90;1.70;;;29.90;28.40;;;;;;5143280;27;20460;-86
2022/07/27 15:04:34;;;;;;;2.13;1.53;;;30.10;29.10;;;;;;5113912;27;20465;-87
2022/07/27 15:07:03;;;;;;;2.20;1.80;;;30.10;29.00;;;;;;5127762;27;20982;-87
2022/07/27 15:09:30;;;;;;;2.13;1.93;;;30.00;28.40;;;;;;5123883;27;20441;-88
2022/07/27 15:11:57;;;;;;;3.50;1.60;;;29.90;28.70;;;;;;5110300;27;21015;-88
2022/07/27 15:14:25;;;;;;;5.10;1.80;;;29.80;29.10;;;;;;5125724;27;20576;-88
2022/07/27 15:16:52;;;;;;;3.17;1.47;;;29.90;29.10;;;;;;5111564;27;20448;-88
2022/07/27 15:19:20;;;;;;;2.30;1.40;;;29.90;28.80;;;;;;5123022;27;20445;-89
2022/07/27 15:21:48;;;;;;;1.77;1.50;;;29.90;28.70;;;;;;5142994;27;20821;-87
2022/07/27 15:28:22;;;;;;;2.80;1.40;;;29.60;28.50;;;;;;5107341;27;20565;-88
2022/07/27 15:30:49;;;;;;;2.60;1.80;;;29.30;28.60;;;;;;5121922;27;20535;-87
2022/07/27 15:33:16;;;;;;;2.23;1.50;;;29.30;28.90;;;;;;5142789;27;20975;-88
2022/07/27 15:35:43;;;;;;;3.73;1.83;;;29.30;28.70;;;;;;5126184;27;20456;-88
2022/07/27 15:38:10;;;;;;;4.30;1.40;;;29.50;29.40;;;;;;5110085;27;20569;-87
2022/07/27 15:40:36;;;;;;;1.60;1.50;;;29.40;28.20;;;;;;5105569;27;20451;-88
2022/07/27 15:43:03;;;;;;;1.53;1.43;;;29.30;28.70;;;;;;5108435;27;20454;-87
2022/07/27 15:45:37;;;;;;;2.00;1.80;;;29.10;29.20;;;;;;5140355;27;20443;-88
2022/07/27 15:48:04;;;;;;;1.63;1.53;;;29.30;29.10;;;;;;5115056;27;20465;-86
2022/07/27 15:50:33;;;;;;;2.43;1.63;;;29.40;29.10;;;;;;5128123;27;20480;-86
2022/07/27 15:53:00;;;;;;;3.40;1.50;;;29.60;29.00;;;;;;5110158;27;20465;-87
2022/07/27 15:55:27;;;;;;;2.50;1.70;;;29.60;28.40;;;;;;5124116;27;20471;-88
2022/07/27 15:57:54;;;;;;;1.70;1.60;;;29.20;28.90;;;;;;5108310;27;20441;-88